sensor_id;sensor_type;location;lat;lon;timestamp;pressure;altitude;pressure_sealevel;temperature;humidity
63115;BME280;49208;50.874;6.466;2024-03-25T07:01:20;99652.47;;;10.54;78.44
63115;BME280;49208;50.874;6.466;2024-03-25T07:03:46;99653.59;;;11.21;74.60
63115;BME280;49208;50.874;6.466;2024-03-25T07:06:12;99652.44;;;11.78;70.63
63115;BME280;49208;50.874;6.466;2024-03-25T07:08:38;99636.66;;;11.90;70.15
63115;BME280;49208;50.874;6.466;2024-03-25T07:11:03;99641.72;;;12.44;65.89
63115;BME280;49208;50.874;6.466;2024-03-25T07:13:29;99631.25;;;12.87;65.08
63115;BME280;49208;50.874;6.466;2024-03-25T07:15:54;99631.31;;;13.02;63.55
63115;BME280;49208;50.874;6.466;2024-03-25T07:18:21;99629.94;;;13.41;62.97
63115;BME280;49208;50.874;6.466;2024-03-25T07:20:46;99625.09;;;13.90;61.70
63115;BME280;49208;50.874;6.466;2024-03-25T07:23:11;99621.34;;;14.22;60.45
63115;BME280;49208;50.874;6.466;2024-03-25T07:25:37;99625.19;;;14.59;58.55
63115;BME280;49208;50.874;6.466;2024-03-25T07:28:03;99624.69;;;14.67;56.93
63115;BME280;49208;50.874;6.466;2024-03-25T07:30:28;99627.09;;;14.71;57.59
63115;BME280;49208;50.874;6.466;2024-03-25T07:32:55;99631.88;;;15.06;55.65
63115;BME280;49208;50.874;6.466;2024-03-25T07:35:21;99634.63;;;15.19;54.50
63115;BME280;49208;50.874;6.466;2024-03-25T07:37:46;99634.50;;;15.21;55.48
63115;BME280;49208;50.874;6.466;2024-03-25T07:40:12;99625.09;;;15.53;55.56
63115;BME280;49208;50.874;6.466;2024-03-25T07:42:38;99632.31;;;15.66;52.12
63115;BME280;49208;50.874;6.466;2024-03-25T07:45:04;99627.59;;;15.69;52.64
63115;BME280;49208;50.874;6.466;2024-03-25T07:47:34;99627.09;;;16.27;47.98
63115;BME280;49208;50.874;6.466;2024-03-25T07:49:59;99618.28;;;15.75;50.24
63115;BME280;49208;50.874;6.466;2024-03-25T07:52:25;99627.25;;;15.61;52.11
63115;BME280;49208;50.874;6.466;2024-03-25T07:54:51;99633.28;;;15.90;50.96
63115;BME280;49208;50.874;6.466;2024-03-25T07:57:17;99632.19;;;16.06;51.56
63115;BME280;49208;50.874;6.466;2024-03-25T07:59:43;99627.34;;;16.24;49.47
63115;BME280;49208;50.874;6.466;2024-03-25T08:02:08;99635.94;;;16.16;50.40
63115;BME280;49208;50.874;6.466;2024-03-25T08:04:33;99623.66;;;16.38;49.91
63115;BME280;49208;50.874;6.466;2024-03-25T08:06:59;99627.03;;;16.15;49.58
63115;BME280;49208;50.874;6.466;2024-03-25T08:09:24;99628.91;;;16.02;48.46
63115;BME280;49208;50.874;6.466;2024-03-25T08:11:50;99627.13;;;16.14;49.74
63115;BME280;49208;50.874;6.466;2024-03-25T08:14:15;99616.84;;;15.95;51.69
63115;BME280;49208;50.874;6.466;2024-03-25T08:16:40;99620.53;;;15.94;51.15
63115;BME280;49208;50.874;6.466;2024-03-25T08:19:06;99621.38;;;15.69;53.91
63115;BME280;49208;50.874;6.466;2024-03-25T08:21:31;99617.72;;;15.95;47.98
63115;BME280;49208;50.874;6.466;2024-03-25T08:23:56;99617.84;;;15.94;48.70
63115;BME280;49208;50.874;6.466;2024-03-25T08:26:22;99625.44;;;15.49;51.06
63115;BME280;49208;50.874;6.466;2024-03-25T08:28:47;99617.06;;;15.66;52.71
63115;BME280;49208;50.874;6.466;2024-03-25T08:31:14;99617.16;;;16.03;50.82
63115;BME280;49208;50.874;6.466;2024-03-25T08:33:40;99614.28;;;15.93;51.97
63115;BME280;49208;50.874;6.466;2024-03-25T08:36:06;99610.00;;;16.41;48.73
63115;BME280;49208;50.874;6.466;2024-03-25T08:38:31;99610.84;;;16.41;49.62
63115;BME280;49208;50.874;6.466;2024-03-25T08:40:56;99602.41;;;16.59;47.84
63115;BME280;49208;50.874;6.466;2024-03-25T08:43:22;99604.81;;;16.50;47.94
63115;BME280;49208;50.874;6.466;2024-03-25T08:45:47;99603.22;;;16.72;49.07
63115;BME280;49208;50.874;6.466;2024-03-25T08:48:12;99611.03;;;16.14;46.86
63115;BME280;49208;50.874;6.466;2024-03-25T08:50:38;99603.56;;;16.30;54.92
63115;BME280;49208;50.874;6.466;2024-03-25T08:53:04;99602.03;;;16.39;48.01
63115;BME280;49208;50.874;6.466;2024-03-25T08:55:29;99604.09;;;15.99;49.20
63115;BME280;49208;50.874;6.466;2024-03-25T08:57:55;99599.28;;;15.78;51.98
63115;BME280;49208;50.874;6.466;2024-03-25T09:00:20;99601.81;;;15.54;50.08
63115;BME280;49208;50.874;6.466;2024-03-25T09:02:46;99601.97;;;15.12;51.40
63115;BME280;49208;50.874;6.466;2024-03-25T09:05:11;99606.16;;;14.64;50.36
63115;BME280;49208;50.874;6.466;2024-03-25T09:07:38;99610.44;;;14.66;51.74
63115;BME280;49208;50.874;6.466;2024-03-25T09:10:04;99607.00;;;14.50;55.13
63115;BME280;49208;50.874;6.466;2024-03-25T09:12:48;99600.50;;;14.12;53.52
63115;BME280;49208;50.874;6.466;2024-03-25T09:15:14;99593.47;;;13.97;55.66
63115;BME280;49208;50.874;6.466;2024-03-25T09:17:40;99597.19;;;13.66;55.94
63115;BME280;49208;50.874;6.466;2024-03-25T09:20:06;99590.69;;;13.56;54.33
63115;BME280;49208;50.874;6.466;2024-03-25T09:22:43;99590.53;;;13.28;57.88
63115;BME280;49208;50.874;6.466;2024-03-25T09:25:08;99587.44;;;13.06;59.36
63115;BME280;49208;50.874;6.466;2024-03-25T09:27:33;99582.63;;;12.66;58.35
63115;BME280;49208;50.874;6.466;2024-03-25T09:29:59;99582.69;;;12.81;61.96
63115;BME280;49208;50.874;6.466;2024-03-25T09:32:24;99577.63;;;12.90;62.94
63115;BME280;49208;50.874;6.466;2024-03-25T09:34:51;99586.38;;;13.08;62.73
63115;BME280;49208;50.874;6.466;2024-03-25T09:37:17;99579.34;;;13.07;59.63
63115;BME280;49208;50.874;6.466;2024-03-25T09:39:42;99580.00;;;13.11;61.27
63115;BME280;49208;50.874;6.466;2024-03-25T09:42:08;99576.66;;;13.22;60.29
63115;BME280;49208;50.874;6.466;2024-03-25T09:44:39;99577.63;;;13.21;58.95
63115;BME280;49208;50.874;6.466;2024-03-25T09:47:04;99568.00;;;13.18;58.85
63115;BME280;49208;50.874;6.466;2024-03-25T09:49:31;99566.31;;;12.87;58.86
63115;BME280;49208;50.874;6.466;2024-03-25T09:51:57;99565.38;;;12.72;55.64
63115;BME280;49208;50.874;6.466;2024-03-25T09:54:22;99559.03;;;12.59;59.70
63115;BME280;49208;50.874;6.466;2024-03-25T09:56:49;99556.44;;;12.57;57.88
63115;BME280;49208;50.874;6.466;2024-03-25T09:59:14;99557.84;;;12.48;58.64
63115;BME280;49208;50.874;6.466;2024-03-25T10:01:40;99554.03;;;12.68;61.40
63115;BME280;49208;50.874;6.466;2024-03-25T10:04:05;99553.31;;;12.81;60.93
63115;BME280;49208;50.874;6.466;2024-03-25T10:06:30;99547.03;;;12.96;61.77
63115;BME280;49208;50.874;6.466;2024-03-25T10:08:57;99539.13;;;12.94;59.31
63115;BME280;49208;50.874;6.466;2024-03-25T10:11:22;99534.81;;;12.92;58.14
63115;BME280;49208;50.874;6.466;2024-03-25T10:13:48;99530.22;;;12.80;56.54
63115;BME280;49208;50.874;6.466;2024-03-25T10:16:13;99536.09;;;12.70;59.72
63115;BME280;49208;50.874;6.466;2024-03-25T10:18:38;99527.19;;;12.86;58.80
63115;BME280;49208;50.874;6.466;2024-03-25T10:21:04;99527.25;;;12.84;54.03
63115;BME280;49208;50.874;6.466;2024-03-25T10:23:30;99531.22;;;12.93;56.03
63115;BME280;49208;50.874;6.466;2024-03-25T10:25:57;99519.41;;;12.97;58.75
63115;BME280;49208;50.874;6.466;2024-03-25T10:28:22;99519.28;;;12.99;57.80
63115;BME280;49208;50.874;6.466;2024-03-25T10:30:48;99519.19;;;12.70;51.89
63115;BME280;49208;50.874;6.466;2024-03-25T10:33:13;99505.25;;;12.81;53.46
63115;BME280;49208;50.874;6.466;2024-03-25T10:35:40;99506.13;;;12.96;53.14
63115;BME280;49208;50.874;6.466;2024-03-25T10:38:09;99503.72;;;12.91;50.17
63115;BME280;49208;50.874;6.466;2024-03-25T10:40:39;99500.09;;;12.92;50.18
63115;BME280;49208;50.874;6.466;2024-03-25T10:43:08;99501.53;;;12.98;52.57
63115;BME280;49208;50.874;6.466;2024-03-25T10:45:42;99493.66;;;12.80;50.71
63115;BME280;49208;50.874;6.466;2024-03-25T10:48:27;99491.78;;;12.82;55.23
63115;BME280;49208;50.874;6.466;2024-03-25T10:50:55;99492.25;;;12.74;54.52
63115;BME280;49208;50.874;6.466;2024-03-25T10:53:21;99480.31;;;12.80;52.91
63115;BME280;49208;50.874;6.466;2024-03-25T10:55:50;99480.81;;;12.72;55.59
63115;BME280;49208;50.874;6.466;2024-03-25T10:58:16;99487.13;;;12.86;56.31
63115;BME280;49208;50.874;6.466;2024-03-25T11:00:43;99485.69;;;12.94;53.64
63115;BME280;49208;50.874;6.466;2024-03-25T11:03:09;99467.34;;;12.74;54.66
63115;BME280;49208;50.874;6.466;2024-03-25T11:05:35;99465.56;;;12.74;54.36
63115;BME280;49208;50.874;6.466;2024-03-25T11:08:14;99455.03;;;12.71;54.05
63115;BME280;49208;50.874;6.466;2024-03-25T11:10:41;99460.72;;;12.51;55.49
63115;BME280;49208;50.874;6.466;2024-03-25T11:13:14;99446.91;;;12.59;56.81
63115;BME280;49208;50.874;6.466;2024-03-25T11:15:44;99445.03;;;12.75;58.01
63115;BME280;49208;50.874;6.466;2024-03-25T11:18:14;99444.84;;;12.92;55.31
63115;BME280;49208;50.874;6.466;2024-03-25T11:20:40;99440.19;;;13.10;55.42
63115;BME280;49208;50.874;6.466;2024-03-25T11:23:13;99433.31;;;13.06;51.64
63115;BME280;49208;50.874;6.466;2024-03-25T11:25:39;99429.31;;;12.85;52.61
63115;BME280;49208;50.874;6.466;2024-03-25T11:28:05;99427.22;;;12.90;53.90
63115;BME280;49208;50.874;6.466;2024-03-25T11:30:31;99431.25;;;13.11;58.18
63115;BME280;49208;50.874;6.466;2024-03-25T11:32:57;99420.91;;;13.20;53.90
63115;BME280;49208;50.874;6.466;2024-03-25T11:35:22;99422.81;;;13.18;51.67
63115;BME280;49208;50.874;6.466;2024-03-25T11:37:48;99411.50;;;13.00;50.36
63115;BME280;49208;50.874;6.466;2024-03-25T11:40:15;99419.78;;;12.95;51.59
63115;BME280;49208;50.874;6.466;2024-03-25T11:42:41;99416.50;;;12.76;52.23
63115;BME280;49208;50.874;6.466;2024-03-25T11:45:17;99406.50;;;12.65;52.12
63115;BME280;49208;50.874;6.466;2024-03-25T11:47:43;99398.59;;;12.92;54.52
63115;BME280;49208;50.874;6.466;2024-03-25T11:50:12;99390.50;;;12.93;51.38
63115;BME280;49208;50.874;6.466;2024-03-25T11:52:37;99394.22;;;13.05;53.73
63115;BME280;49208;50.874;6.466;2024-03-25T11:55:03;99392.47;;;13.19;53.41
63115;BME280;49208;50.874;6.466;2024-03-25T11:57:29;99390.66;;;13.19;49.50
63115;BME280;49208;50.874;6.466;2024-03-25T11:59:54;99392.19;;;13.09;52.35
63115;BME280;49208;50.874;6.466;2024-03-25T12:02:20;99383.72;;;13.02;50.49
63115;BME280;49208;50.874;6.466;2024-03-25T12:04:47;99385.13;;;13.22;50.59
63115;BME280;49208;50.874;6.466;2024-03-25T12:07:14;99368.06;;;13.39;52.61
63115;BME280;49208;50.874;6.466;2024-03-25T12:09:40;99373.91;;;13.59;50.86
63115;BME280;49208;50.874;6.466;2024-03-25T12:12:26;99367.72;;;13.58;51.40
63115;BME280;49208;50.874;6.466;2024-03-25T12:14:52;99366.69;;;13.73;49.10
63115;BME280;49208;50.874;6.466;2024-03-25T12:17:18;99356.75;;;13.75;51.21
63115;BME280;49208;50.874;6.466;2024-03-25T12:22:33;99350.59;;;13.33;51.09
63115;BME280;49208;50.874;6.466;2024-03-25T12:25:00;99340.47;;;13.39;50.45
63115;BME280;49208;50.874;6.466;2024-03-25T12:27:28;99340.25;;;13.27;50.13
63115;BME280;49208;50.874;6.466;2024-03-25T12:30:00;99338.13;;;13.05;51.88
63115;BME280;49208;50.874;6.466;2024-03-25T12:32:39;99338.38;;;13.01;50.51
63115;BME280;49208;50.874;6.466;2024-03-25T12:35:13;99338.50;;;12.99;49.13
63115;BME280;49208;50.874;6.466;2024-03-25T12:37:39;99334.19;;;13.11;51.70
63115;BME280;49208;50.874;6.466;2024-03-25T12:40:06;99326.22;;;13.38;51.29
63115;BME280;49208;50.874;6.466;2024-03-25T12:42:33;99319.53;;;13.45;51.11
63115;BME280;49208;50.874;6.466;2024-03-25T12:44:58;99318.06;;;13.54;51.77
63115;BME280;49208;50.874;6.466;2024-03-25T12:47:24;99310.91;;;13.54;49.09
63115;BME280;49208;50.874;6.466;2024-03-25T12:49:49;99304.97;;;13.64;48.73
63115;BME280;49208;50.874;6.466;2024-03-25T12:52:15;99300.47;;;13.64;49.11
63115;BME280;49208;50.874;6.466;2024-03-25T12:54:40;99295.22;;;13.75;49.08
63115;BME280;49208;50.874;6.466;2024-03-25T12:57:07;99286.47;;;13.05;48.74
63115;BME280;49208;50.874;6.466;2024-03-25T12:59:32;99287.31;;;12.64;49.81
63115;BME280;49208;50.874;6.466;2024-03-25T13:01:57;99278.81;;;12.57;51.03
63115;BME280;49208;50.874;6.466;2024-03-25T13:04:23;99276.72;;;12.33;50.69
63115;BME280;49208;50.874;6.466;2024-03-25T13:06:49;99271.97;;;12.53;52.21
63115;BME280;49208;50.874;6.466;2024-03-25T13:09:14;99265.66;;;12.68;52.52
63115;BME280;49208;50.874;6.466;2024-03-25T13:11:39;99264.25;;;12.48;50.34
63115;BME280;49208;50.874;6.466;2024-03-25T13:14:06;99259.75;;;12.49;50.85
63115;BME280;49208;50.874;6.466;2024-03-25T13:16:34;99251.06;;;12.74;51.71
63115;BME280;49208;50.874;6.466;2024-03-25T13:19:00;99245.69;;;12.88;52.14
63115;BME280;49208;50.874;6.466;2024-03-25T13:21:25;99246.13;;;12.68;50.84
63115;BME280;49208;50.874;6.466;2024-03-25T13:23:52;99241.38;;;12.30;51.97
63115;BME280;49208;50.874;6.466;2024-03-25T13:26:17;99241.38;;;12.30;53.21
63115;BME280;49208;50.874;6.466;2024-03-25T13:28:43;99235.84;;;12.19;53.77
63115;BME280;49208;50.874;6.466;2024-03-25T13:31:08;99236.22;;;12.12;50.04
63115;BME280;49208;50.874;6.466;2024-03-25T13:33:34;99230.44;;;12.20;49.17
63115;BME280;49208;50.874;6.466;2024-03-25T13:35:59;99216.78;;;12.39;50.69
63115;BME280;49208;50.874;6.466;2024-03-25T13:38:24;99225.34;;;12.59;51.87
63115;BME280;49208;50.874;6.466;2024-03-25T13:40:51;99212.28;;;12.54;51.22
63115;BME280;49208;50.874;6.466;2024-03-25T13:43:17;99199.72;;;12.56;49.91
63115;BME280;49208;50.874;6.466;2024-03-25T13:45:47;99201.41;;;12.43;49.31
63115;BME280;49208;50.874;6.466;2024-03-25T13:48:13;99189.63;;;12.32;48.54
63115;BME280;49208;50.874;6.466;2024-03-25T13:50:39;99190.75;;;12.43;49.15
63115;BME280;49208;50.874;6.466;2024-03-25T13:53:04;99183.72;;;12.42;49.59
63115;BME280;49208;50.874;6.466;2024-03-25T13:55:30;99190.75;;;12.43;49.24
63115;BME280;49208;50.874;6.466;2024-03-25T13:57:56;99189.22;;;12.53;49.96
63115;BME280;49208;50.874;6.466;2024-03-25T14:00:21;99173.47;;;12.63;48.98
63115;BME280;49208;50.874;6.466;2024-03-25T14:02:47;99173.38;;;12.64;48.96
63115;BME280;49208;50.874;6.466;2024-03-25T14:05:13;99180.72;;;12.61;46.92
63115;BME280;49208;50.874;6.466;2024-03-25T14:07:38;99181.78;;;12.58;48.63
63115;BME280;49208;50.874;6.466;2024-03-25T14:10:04;99184.34;;;12.60;47.60
63115;BME280;49208;50.874;6.466;2024-03-25T14:12:29;99171.56;;;12.65;50.79
63115;BME280;49208;50.874;6.466;2024-03-25T14:14:55;99178.44;;;12.54;47.49
63115;BME280;49208;50.874;6.466;2024-03-25T14:17:20;99168.81;;;12.52;47.84
63115;BME280;49208;50.874;6.466;2024-03-25T14:19:46;99171.28;;;12.55;50.43
63115;BME280;49208;50.874;6.466;2024-03-25T14:22:11;99167.38;;;12.61;48.32
63115;BME280;49208;50.874;6.466;2024-03-25T14:24:36;99155.53;;;12.65;48.54
63115;BME280;49208;50.874;6.466;2024-03-25T14:27:02;99150.03;;;12.68;46.25
63115;BME280;49208;50.874;6.466;2024-03-25T14:29:27;99140.06;;;12.70;47.57
63115;BME280;49208;50.874;6.466;2024-03-25T14:31:54;99138.75;;;12.63;45.62
63115;BME280;49208;50.874;6.466;2024-03-25T14:34:20;99126.88;;;12.54;46.51
63115;BME280;49208;50.874;6.466;2024-03-25T14:36:45;99132.41;;;12.51;48.23
63115;BME280;49208;50.874;6.466;2024-03-25T14:39:11;99125.66;;;12.45;46.07
63115;BME280;49208;50.874;6.466;2024-03-25T14:41:40;99126.59;;;12.44;47.97
63115;BME280;49208;50.874;6.466;2024-03-25T14:44:06;99116.16;;;12.41;47.05
63115;BME280;49208;50.874;6.466;2024-03-25T14:46:31;99112.72;;;12.39;47.08
63115;BME280;49208;50.874;6.466;2024-03-25T14:48:57;99100.63;;;12.33;49.62
63115;BME280;49208;50.874;6.466;2024-03-25T14:51:22;99105.00;;;12.34;48.37
63115;BME280;49208;50.874;6.466;2024-03-25T14:53:47;99102.13;;;12.38;47.50
63115;BME280;49208;50.874;6.466;2024-03-25T14:56:13;99106.50;;;12.39;45.44
63115;BME280;49208;50.874;6.466;2024-03-25T14:58:38;99093.47;;;12.34;46.46
63115;BME280;49208;50.874;6.466;2024-03-25T15:01:05;99091.00;;;12.31;46.98
63115;BME280;49208;50.874;6.466;2024-03-25T15:03:30;99077.75;;;12.29;49.48
63115;BME280;49208;50.874;6.466;2024-03-25T15:05:56;99079.19;;;12.35;48.36
63115;BME280;49208;50.874;6.466;2024-03-25T15:08:21;99069.06;;;12.40;47.13
63115;BME280;49208;50.874;6.466;2024-03-25T15:10:47;99059.63;;;12.34;47.43
63115;BME280;49208;50.874;6.466;2024-03-25T15:13:13;99064.13;;;12.34;46.54
63115;BME280;49208;50.874;6.466;2024-03-25T15:15:39;99052.59;;;12.33;46.30
63115;BME280;49208;50.874;6.466;2024-03-25T15:18:05;99053.38;;;12.21;46.66
63115;BME280;49208;50.874;6.466;2024-03-25T15:20:32;99048.13;;;12.20;47.36
63115;BME280;49208;50.874;6.466;2024-03-25T15:22:57;99060.63;;;12.19;49.01
63115;BME280;49208;50.874;6.466;2024-03-25T15:25:23;99042.25;;;12.15;47.54
63115;BME280;49208;50.874;6.466;2024-03-25T15:27:48;99038.34;;;12.20;47.75
63115;BME280;49208;50.874;6.466;2024-03-25T15:30:13;99036.16;;;12.12;46.00
63115;BME280;49208;50.874;6.466;2024-03-25T15:32:39;99035.72;;;12.06;48.96
63115;BME280;49208;50.874;6.466;2024-03-25T15:35:05;99033.44;;;12.00;48.39
63115;BME280;49208;50.874;6.466;2024-03-25T15:37:30;99027.50;;;12.09;47.28
63115;BME280;49208;50.874;6.466;2024-03-25T15:39:56;99030.38;;;12.06;47.37
63115;BME280;49208;50.874;6.466;2024-03-25T15:42:21;99027.81;;;12.04;48.84
63115;BME280;49208;50.874;6.466;2024-03-25T15:44:49;99024.47;;;12.01;46.87
63115;BME280;49208;50.874;6.466;2024-03-25T15:47:15;99030.59;;;11.88;46.75
63115;BME280;49208;50.874;6.466;2024-03-25T15:49:44;99018.28;;;11.86;46.33
63115;BME280;49208;50.874;6.466;2024-03-25T15:52:12;99022.19;;;11.80;48.32
63115;BME280;49208;50.874;6.466;2024-03-25T15:54:37;99021.34;;;11.80;47.83
63115;BME280;49208;50.874;6.466;2024-03-25T15:57:03;99015.63;;;11.71;48.25
63115;BME280;49208;50.874;6.466;2024-03-25T15:59:29;99013.81;;;11.72;46.50
63115;BME280;49208;50.874;6.466;2024-03-25T16:01:54;99002.59;;;11.67;47.29
63115;BME280;49208;50.874;6.466;2024-03-25T16:04:20;99011.44;;;11.67;48.23
63115;BME280;49208;50.874;6.466;2024-03-25T16:06:45;98998.50;;;11.61;47.74
63115;BME280;49208;50.874;6.466;2024-03-25T16:09:11;99003.28;;;11.56;46.41
63115;BME280;49208;50.874;6.466;2024-03-25T16:11:36;98997.38;;;11.51;48.95
63115;BME280;49208;50.874;6.466;2024-03-25T16:14:02;98998.34;;;11.50;47.96
63115;BME280;49208;50.874;6.466;2024-03-25T16:16:27;98994.34;;;11.43;48.83
63115;BME280;49208;50.874;6.466;2024-03-25T16:18:53;98995.59;;;11.37;47.86
63115;BME280;49208;50.874;6.466;2024-03-25T16:21:18;98993.31;;;11.31;48.15
63115;BME280;49208;50.874;6.466;2024-03-25T16:23:45;98991.28;;;11.20;49.47
63115;BME280;49208;50.874;6.466;2024-03-25T16:26:10;98989.88;;;11.15;49.49
63115;BME280;49208;50.874;6.466;2024-03-25T16:28:38;98986.91;;;11.05;50.34
63115;BME280;49208;50.874;6.466;2024-03-25T16:31:04;98992.53;;;11.00;51.36
63115;BME280;49208;50.874;6.466;2024-03-25T16:33:30;98983.53;;;10.87;50.57
63115;BME280;49208;50.874;6.466;2024-03-25T16:35:55;98986.78;;;10.78;51.73
63115;BME280;49208;50.874;6.466;2024-03-25T16:38:21;98978.41;;;10.69;52.19
63115;BME280;49208;50.874;6.466;2024-03-25T16:40:46;98977.91;;;10.63;51.85
63115;BME280;49208;50.874;6.466;2024-03-25T16:43:12;98973.88;;;10.56;52.09
63115;BME280;49208;50.874;6.466;2024-03-25T16:45:38;98965.34;;;10.50;52.65
63115;BME280;49208;50.874;6.466;2024-03-25T16:48:03;98968.34;;;10.44;53.04
63115;BME280;49208;50.874;6.466;2024-03-25T16:50:29;98966.22;;;10.35;53.44
63115;BME280;49208;50.874;6.466;2024-03-25T16:52:55;98961.09;;;10.32;53.68
63115;BME280;49208;50.874;6.466;2024-03-25T16:55:20;98955.06;;;10.28;52.65
63115;BME280;49208;50.874;6.466;2024-03-25T16:57:46;98959.78;;;10.23;52.23
63115;BME280;49208;50.874;6.466;2024-03-25T17:00:12;98954.72;;;10.19;51.74
63115;BME280;49208;50.874;6.466;2024-03-25T17:02:37;98955.00;;;10.14;52.14
63115;BME280;49208;50.874;6.466;2024-03-25T17:05:05;98949.88;;;10.11;52.60
63115;BME280;49208;50.874;6.466;2024-03-25T17:07:30;98942.25;;;10.05;53.04
63115;BME280;49208;50.874;6.466;2024-03-25T17:09:56;98938.81;;;10.03;52.98
63115;BME280;49208;50.874;6.466;2024-03-25T17:12:21;98942.69;;;9.97;52.87
63115;BME280;49208;50.874;6.466;2024-03-25T17:14:47;98937.72;;;9.91;53.27
63115;BME280;49208;50.874;6.466;2024-03-25T17:17:12;98931.97;;;9.83;54.10
63115;BME280;49208;50.874;6.466;2024-03-25T17:19:37;98942.78;;;9.80;53.90
63115;BME280;49208;50.874;6.466;2024-03-25T17:22:04;98938.81;;;9.71;54.02
63115;BME280;49208;50.874;6.466;2024-03-25T17:24:30;98938.25;;;9.66;54.34
63115;BME280;49208;50.874;6.466;2024-03-25T17:26:56;98939.44;;;9.60;54.42
63115;BME280;49208;50.874;6.466;2024-03-25T17:29:21;98935.34;;;9.55;54.56
63115;BME280;49208;50.874;6.466;2024-03-25T17:31:48;98937.47;;;9.48;54.97
63115;BME280;49208;50.874;6.466;2024-03-25T17:34:14;98925.56;;;9.39;55.83
63115;BME280;49208;50.874;6.466;2024-03-25T17:36:40;98921.53;;;9.32;56.58
63115;BME280;49208;50.874;6.466;2024-03-25T17:39:05;98920.06;;;9.26;56.35
63115;BME280;49208;50.874;6.466;2024-03-25T17:41:31;98920.47;;;9.19;56.90
63115;BME280;49208;50.874;6.466;2024-03-25T17:43:57;98912.06;;;9.10;56.55
63115;BME280;49208;50.874;6.466;2024-03-25T17:46:23;98908.03;;;9.03;57.19
63115;BME280;49208;50.874;6.466;2024-03-25T17:48:48;98910.19;;;8.97;57.30
63115;BME280;49208;50.874;6.466;2024-03-25T17:51:16;98905.19;;;8.90;58.18
63115;BME280;49208;50.874;6.466;2024-03-25T17:53:42;98901.16;;;8.83;57.60
63115;BME280;49208;50.874;6.466;2024-03-25T17:56:08;98901.47;;;8.77;58.00
63115;BME280;49208;50.874;6.466;2024-03-25T17:58:33;98892.13;;;8.70;57.16
63115;BME280;49208;50.874;6.466;2024-03-25T18:00:59;98902.13;;;8.65;58.60
63115;BME280;49208;50.874;6.466;2024-03-25T18:03:25;98886.63;;;8.57;57.79
63115;BME280;49208;50.874;6.466;2024-03-25T18:05:50;98893.88;;;8.54;57.17
63115;BME280;49208;50.874;6.466;2024-03-25T18:08:16;98891.47;;;8.49;56.85
63115;BME280;49208;50.874;6.466;2024-03-25T18:10:42;98896.00;;;8.47;56.12
63115;BME280;49208;50.874;6.466;2024-03-25T18:13:17;98894.28;;;8.46;56.30
63115;BME280;49208;50.874;6.466;2024-03-25T18:15:46;98891.00;;;8.41;57.62
63115;BME280;49208;50.874;6.466;2024-03-25T18:18:12;98894.72;;;8.37;57.01
63115;BME280;49208;50.874;6.466;2024-03-25T18:20:38;98894.00;;;8.33;57.54
63115;BME280;49208;50.874;6.466;2024-03-25T18:23:03;98887.34;;;8.26;58.25
63115;BME280;49208;50.874;6.466;2024-03-25T18:25:29;98885.13;;;8.17;58.64
63115;BME280;49208;50.874;6.466;2024-03-25T18:27:54;98886.28;;;8.11;58.55
63115;BME280;49208;50.874;6.466;2024-03-25T18:30:20;98880.38;;;8.06;59.58
63115;BME280;49208;50.874;6.466;2024-03-25T18:32:45;98880.69;;;8.00;60.11
63115;BME280;49208;50.874;6.466;2024-03-25T18:35:11;98880.81;;;7.97;60.04
63115;BME280;49208;50.874;6.466;2024-03-25T18:37:37;98884.56;;;7.93;61.19
63115;BME280;49208;50.874;6.466;2024-03-25T18:40:03;98880.44;;;7.87;61.39
63115;BME280;49208;50.874;6.466;2024-03-25T18:42:30;98874.38;;;7.85;62.02
63115;BME280;49208;50.874;6.466;2024-03-25T18:44:56;98870.09;;;7.82;61.89
63115;BME280;49208;50.874;6.466;2024-03-25T18:47:21;98872.09;;;7.77;62.63
63115;BME280;49208;50.874;6.466;2024-03-25T18:49:47;98866.88;;;7.76;61.91
63115;BME280;49208;50.874;6.466;2024-03-25T18:52:12;98869.69;;;7.73;62.53
63115;BME280;49208;50.874;6.466;2024-03-25T18:54:38;98859.22;;;7.69;64.00
63115;BME280;49208;50.874;6.466;2024-03-25T18:57:05;98862.88;;;7.67;61.80
63115;BME280;49208;50.874;6.466;2024-03-25T18:59:31;98861.09;;;7.67;62.00
63115;BME280;49208;50.874;6.466;2024-03-25T19:01:56;98863.91;;;7.64;62.43
63115;BME280;49208;50.874;6.466;2024-03-25T19:04:21;98868.19;;;7.67;62.00
63115;BME280;49208;50.874;6.466;2024-03-25T19:06:47;98869.31;;;7.61;63.19
63115;BME280;49208;50.874;6.466;2024-03-25T19:09:12;98875.56;;;7.60;62.43
63115;BME280;49208;50.874;6.466;2024-03-25T19:11:37;98869.44;;;7.60;62.22
63115;BME280;49208;50.874;6.466;2024-03-25T19:14:03;98863.41;;;7.56;62.56
63115;BME280;49208;50.874;6.466;2024-03-25T19:16:28;98859.97;;;7.54;62.27
63115;BME280;49208;50.874;6.466;2024-03-25T19:18:54;98856.63;;;7.51;62.37
63115;BME280;49208;50.874;6.466;2024-03-25T19:21:19;98860.34;;;7.46;64.34
63115;BME280;49208;50.874;6.466;2024-03-25T19:23:45;98855.84;;;7.48;61.85
63115;BME280;49208;50.874;6.466;2024-03-25T19:26:10;98851.56;;;7.46;62.82
63115;BME280;49208;50.874;6.466;2024-03-25T19:28:35;98854.19;;;7.46;62.01
63115;BME280;49208;50.874;6.466;2024-03-25T19:31:01;98846.41;;;7.43;61.91
63115;BME280;49208;50.874;6.466;2024-03-25T19:33:26;98852.69;;;7.40;62.63
63115;BME280;49208;50.874;6.466;2024-03-25T19:35:51;98844.13;;;7.35;62.86
63115;BME280;49208;50.874;6.466;2024-03-25T19:38:17;98844.28;;;7.32;62.34
63115;BME280;49208;50.874;6.466;2024-03-25T19:40:42;98842.69;;;7.28;63.16
63115;BME280;49208;50.874;6.466;2024-03-25T19:43:07;98846.34;;;7.25;62.81
63115;BME280;49208;50.874;6.466;2024-03-25T19:45:33;98834.06;;;7.24;62.78
63115;BME280;49208;50.874;6.466;2024-03-25T19:47:58;98842.06;;;7.23;62.82
63115;BME280;49208;50.874;6.466;2024-03-25T19:50:23;98834.06;;;7.24;63.81
63115;BME280;49208;50.874;6.466;2024-03-25T19:52:49;98833.28;;;7.22;62.58
63115;BME280;49208;50.874;6.466;2024-03-25T19:55:14;98835.22;;;7.19;63.92
63115;BME280;49208;50.874;6.466;2024-03-25T19:57:40;98841.53;;;7.16;64.35
63115;BME280;49208;50.874;6.466;2024-03-25T20:00:05;98840.00;;;7.11;64.64